Terminal Aerodrome Forecast
Issued by NWS Amarillo, TX

Home | Current Version | Previous Version | Text Only | Print | Product List | Glossary On
Versions: 1 2 3 4 5 6 7 8 9 10 11 12 13 14 15 16 17 18
000
FTUS44 KAMA 270600 AAA
TAFDHT
TAF AMD
KDHT 270623Z 2706/2806 08013KT 4SM -SN OVC040
     FM270800 10010KT 4SM -SN OVC020
     FM271000 10012KT 1 1/2SM -SN OVC010
     FM271600 16014KT 3SM -SN OVC015=

USA.gov is the U.S. government's official web portal to all federal, state and local government web resources and services.